sensor_id;sensor_type;location;lat;lon;timestamp;P1;durP1;ratioP1;P2;durP2;ratioP2
84284;SDS011;74441;49.470;11.032;2024-03-02T00:01:53;22.88;;;13.68;;
84284;SDS011;74441;49.470;11.032;2024-03-02T00:04:18;22.63;;;13.63;;
84284;SDS011;74441;49.470;11.032;2024-03-02T00:06:43;22.00;;;14.13;;
84284;SDS011;74441;49.470;11.032;2024-03-02T00:09:09;21.43;;;14.17;;
84284;SDS011;74441;49.470;11.032;2024-03-02T00:11:37;24.83;;;13.80;;
84284;SDS011;74441;49.470;11.032;2024-03-02T00:14:02;23.90;;;14.73;;
84284;SDS011;74441;49.470;11.032;2024-03-02T00:16:31;24.52;;;15.75;;
84284;SDS011;74441;49.470;11.032;2024-03-02T00:19:00;20.23;;;13.95;;
84284;SDS011;74441;49.470;11.032;2024-03-02T00:21:26;24.58;;;13.63;;
84284;SDS011;74441;49.470;11.032;2024-03-02T00:23:53;22.60;;;14.65;;
84284;SDS011;74441;49.470;11.032;2024-03-02T00:26:20;24.85;;;15.30;;
84284;SDS011;74441;49.470;11.032;2024-03-02T00:28:46;23.30;;;15.02;;
84284;SDS011;74441;49.470;11.032;2024-03-02T00:31:12;18.10;;;13.25;;
84284;SDS011;74441;49.470;11.032;2024-03-02T00:33:44;22.75;;;13.88;;
84284;SDS011;74441;49.470;11.032;2024-03-02T00:36:11;23.63;;;13.70;;
84284;SDS011;74441;49.470;11.032;2024-03-02T00:38:42;22.98;;;13.75;;
84284;SDS011;74441;49.470;11.032;2024-03-02T00:41:12;22.25;;;14.55;;
84284;SDS011;74441;49.470;11.032;2024-03-02T00:43:45;20.92;;;13.23;;
84284;SDS011;74441;49.470;11.032;2024-03-02T00:46:13;21.75;;;13.93;;
84284;SDS011;74441;49.470;11.032;2024-03-02T00:48:56;20.27;;;14.50;;
84284;SDS011;74441;49.470;11.032;2024-03-02T00:51:24;20.85;;;13.18;;
84284;SDS011;74441;49.470;11.032;2024-03-02T00:53:51;23.48;;;13.80;;
84284;SDS011;74441;49.470;11.032;2024-03-02T00:56:18;21.70;;;14.43;;
84284;SDS011;74441;49.470;11.032;2024-03-02T00:58:43;20.70;;;13.23;;
84284;SDS011;74441;49.470;11.032;2024-03-02T01:01:09;20.30;;;13.70;;
84284;SDS011;74441;49.470;11.032;2024-03-02T01:03:34;22.55;;;13.68;;
84284;SDS011;74441;49.470;11.032;2024-03-02T01:06:00;19.85;;;13.70;;
84284;SDS011;74441;49.470;11.032;2024-03-02T01:08:25;22.77;;;13.82;;
84284;SDS011;74441;49.470;11.032;2024-03-02T01:10:51;23.83;;;14.27;;
84284;SDS011;74441;49.470;11.032;2024-03-02T01:13:16;22.17;;;13.27;;
84284;SDS011;74441;49.470;11.032;2024-03-02T01:15:42;22.77;;;14.73;;
84284;SDS011;74441;49.470;11.032;2024-03-02T01:18:07;21.73;;;14.37;;
84284;SDS011;74441;49.470;11.032;2024-03-02T01:20:32;22.00;;;14.52;;
84284;SDS011;74441;49.470;11.032;2024-03-02T01:22:58;12.38;;;8.82;;
84284;SDS011;74441;49.470;11.032;2024-03-02T01:25:23;8.60;;;6.27;;
84284;SDS011;74441;49.470;11.032;2024-03-02T01:27:48;7.97;;;6.43;;
84284;SDS011;74441;49.470;11.032;2024-03-02T01:30:14;8.03;;;6.13;;
84284;SDS011;74441;49.470;11.032;2024-03-02T01:32:39;7.65;;;6.22;;
84284;SDS011;74441;49.470;11.032;2024-03-02T01:35:05;8.60;;;6.38;;
84284;SDS011;74441;49.470;11.032;2024-03-02T01:37:31;8.20;;;6.07;;
84284;SDS011;74441;49.470;11.032;2024-03-02T01:39:57;8.02;;;6.50;;
84284;SDS011;74441;49.470;11.032;2024-03-02T01:42:23;7.60;;;6.13;;
84284;SDS011;74441;49.470;11.032;2024-03-02T01:44:48;22.20;;;14.60;;
84284;SDS011;74441;49.470;11.032;2024-03-02T01:47:13;23.70;;;15.55;;
84284;SDS011;74441;49.470;11.032;2024-03-02T01:49:39;19.67;;;13.00;;
84284;SDS011;74441;49.470;11.032;2024-03-02T01:52:05;23.23;;;14.88;;
84284;SDS011;74441;49.470;11.032;2024-03-02T01:54:31;22.27;;;14.68;;
84284;SDS011;74441;49.470;11.032;2024-03-02T01:56:56;20.97;;;13.90;;
84284;SDS011;74441;49.470;11.032;2024-03-02T01:59:22;22.80;;;14.35;;
84284;SDS011;74441;49.470;11.032;2024-03-02T02:01:47;22.60;;;14.33;;
84284;SDS011;74441;49.470;11.032;2024-03-02T02:04:12;25.33;;;14.27;;
84284;SDS011;74441;49.470;11.032;2024-03-02T02:06:38;22.73;;;15.02;;
84284;SDS011;74441;49.470;11.032;2024-03-02T02:09:03;21.92;;;13.02;;
84284;SDS011;74441;49.470;11.032;2024-03-02T02:11:29;23.03;;;15.03;;
84284;SDS011;74441;49.470;11.032;2024-03-02T02:13:54;22.30;;;14.33;;
84284;SDS011;74441;49.470;11.032;2024-03-02T02:16:20;22.40;;;15.45;;
84284;SDS011;74441;49.470;11.032;2024-03-02T02:18:46;26.52;;;15.40;;
84284;SDS011;74441;49.470;11.032;2024-03-02T02:21:12;22.00;;;14.90;;
84284;SDS011;74441;49.470;11.032;2024-03-02T02:23:37;23.65;;;13.68;;
84284;SDS011;74441;49.470;11.032;2024-03-02T02:26:02;22.87;;;15.03;;
84284;SDS011;74441;49.470;11.032;2024-03-02T02:28:28;22.58;;;14.43;;
84284;SDS011;74441;49.470;11.032;2024-03-02T02:30:54;23.38;;;15.15;;
84284;SDS011;74441;49.470;11.032;2024-03-02T02:33:21;23.25;;;14.93;;
84284;SDS011;74441;49.470;11.032;2024-03-02T02:35:46;22.53;;;14.57;;
84284;SDS011;74441;49.470;11.032;2024-03-02T02:38:11;24.20;;;14.97;;
84284;SDS011;74441;49.470;11.032;2024-03-02T02:40:37;23.40;;;15.52;;
84284;SDS011;74441;49.470;11.032;2024-03-02T02:43:02;22.50;;;14.90;;
84284;SDS011;74441;49.470;11.032;2024-03-02T02:45:27;23.33;;;14.35;;
84284;SDS011;74441;49.470;11.032;2024-03-02T02:47:54;21.27;;;12.93;;
84284;SDS011;74441;49.470;11.032;2024-03-02T02:50:19;21.88;;;14.63;;
84284;SDS011;74441;49.470;11.032;2024-03-02T02:52:45;20.77;;;14.45;;
84284;SDS011;74441;49.470;11.032;2024-03-02T02:55:11;20.17;;;13.82;;
84284;SDS011;74441;49.470;11.032;2024-03-02T02:57:37;20.90;;;13.38;;
84284;SDS011;74441;49.470;11.032;2024-03-02T03:00:08;21.73;;;13.40;;
84284;SDS011;74441;49.470;11.032;2024-03-02T03:02:43;23.95;;;13.63;;
84284;SDS011;74441;49.470;11.032;2024-03-02T03:05:10;21.52;;;14.27;;
84284;SDS011;74441;49.470;11.032;2024-03-02T03:07:36;20.45;;;13.48;;
84284;SDS011;74441;49.470;11.032;2024-03-02T03:10:02;19.23;;;12.63;;
84284;SDS011;74441;49.470;11.032;2024-03-02T03:12:29;20.35;;;13.05;;
84284;SDS011;74441;49.470;11.032;2024-03-02T03:14:55;18.65;;;12.60;;
84284;SDS011;74441;49.470;11.032;2024-03-02T03:17:21;21.42;;;12.35;;
84284;SDS011;74441;49.470;11.032;2024-03-02T03:19:46;20.77;;;12.55;;
84284;SDS011;74441;49.470;11.032;2024-03-02T03:22:12;19.67;;;12.60;;
84284;SDS011;74441;49.470;11.032;2024-03-02T03:24:38;19.33;;;12.43;;
84284;SDS011;74441;49.470;11.032;2024-03-02T03:27:03;19.17;;;12.27;;
84284;SDS011;74441;49.470;11.032;2024-03-02T03:29:28;16.80;;;11.03;;
84284;SDS011;74441;49.470;11.032;2024-03-02T03:31:54;17.20;;;11.57;;
84284;SDS011;74441;49.470;11.032;2024-03-02T03:34:19;17.33;;;10.93;;
84284;SDS011;74441;49.470;11.032;2024-03-02T03:36:44;17.50;;;11.43;;
84284;SDS011;74441;49.470;11.032;2024-03-02T03:39:10;17.88;;;10.98;;
84284;SDS011;74441;49.470;11.032;2024-03-02T03:41:35;15.77;;;11.07;;
84284;SDS011;74441;49.470;11.032;2024-03-02T03:44:00;16.75;;;11.88;;
84284;SDS011;74441;49.470;11.032;2024-03-02T03:46:26;17.40;;;11.53;;
84284;SDS011;74441;49.470;11.032;2024-03-02T03:48:51;19.13;;;11.77;;
84284;SDS011;74441;49.470;11.032;2024-03-02T03:51:16;16.50;;;11.57;;
84284;SDS011;74441;49.470;11.032;2024-03-02T03:53:42;19.65;;;12.05;;
84284;SDS011;74441;49.470;11.032;2024-03-02T03:56:07;15.35;;;10.85;;
84284;SDS011;74441;49.470;11.032;2024-03-02T03:58:32;16.38;;;11.40;;
84284;SDS011;74441;49.470;11.032;2024-03-02T04:00:58;16.53;;;11.43;;
84284;SDS011;74441;49.470;11.032;2024-03-02T04:03:23;16.23;;;9.97;;
84284;SDS011;74441;49.470;11.032;2024-03-02T04:05:50;16.90;;;11.32;;
84284;SDS011;74441;49.470;11.032;2024-03-02T04:08:16;15.60;;;10.90;;
84284;SDS011;74441;49.470;11.032;2024-03-02T04:10:41;14.77;;;10.30;;
84284;SDS011;74441;49.470;11.032;2024-03-02T04:13:07;15.93;;;10.75;;
84284;SDS011;74441;49.470;11.032;2024-03-02T04:15:32;15.88;;;10.18;;
84284;SDS011;74441;49.470;11.032;2024-03-02T04:17:58;15.95;;;9.90;;
84284;SDS011;74441;49.470;11.032;2024-03-02T04:20:23;14.67;;;9.57;;
84284;SDS011;74441;49.470;11.032;2024-03-02T04:22:48;14.38;;;9.20;;
84284;SDS011;74441;49.470;11.032;2024-03-02T04:25:13;13.80;;;8.77;;
84284;SDS011;74441;49.470;11.032;2024-03-02T04:27:39;14.70;;;9.93;;
84284;SDS011;74441;49.470;11.032;2024-03-02T04:30:04;13.60;;;9.63;;
84284;SDS011;74441;49.470;11.032;2024-03-02T04:32:30;12.52;;;8.70;;
84284;SDS011;74441;49.470;11.032;2024-03-02T04:34:56;13.18;;;8.43;;
84284;SDS011;74441;49.470;11.032;2024-03-02T04:37:22;11.80;;;8.18;;
84284;SDS011;74441;49.470;11.032;2024-03-02T04:39:47;14.60;;;9.50;;
84284;SDS011;74441;49.470;11.032;2024-03-02T04:42:12;12.70;;;8.85;;
84284;SDS011;74441;49.470;11.032;2024-03-02T04:44:37;12.60;;;8.60;;
84284;SDS011;74441;49.470;11.032;2024-03-02T04:47:03;13.15;;;9.23;;
84284;SDS011;74441;49.470;11.032;2024-03-02T04:49:29;13.23;;;9.32;;
84284;SDS011;74441;49.470;11.032;2024-03-02T04:51:55;12.65;;;8.70;;
84284;SDS011;74441;49.470;11.032;2024-03-02T04:54:20;14.07;;;9.18;;
84284;SDS011;74441;49.470;11.032;2024-03-02T04:56:45;12.87;;;8.77;;
84284;SDS011;74441;49.470;11.032;2024-03-02T04:59:17;12.93;;;9.10;;
84284;SDS011;74441;49.470;11.032;2024-03-02T05:01:43;14.02;;;9.00;;
84284;SDS011;74441;49.470;11.032;2024-03-02T05:04:08;12.48;;;8.60;;
84284;SDS011;74441;49.470;11.032;2024-03-02T05:06:36;13.32;;;8.82;;
84284;SDS011;74441;49.470;11.032;2024-03-02T05:09:02;13.32;;;9.05;;
84284;SDS011;74441;49.470;11.032;2024-03-02T05:11:27;15.07;;;9.43;;
84284;SDS011;74441;49.470;11.032;2024-03-02T05:14:01;12.95;;;9.50;;
84284;SDS011;74441;49.470;11.032;2024-03-02T05:16:27;11.60;;;8.30;;
84284;SDS011;74441;49.470;11.032;2024-03-02T05:18:52;13.63;;;8.80;;
84284;SDS011;74441;49.470;11.032;2024-03-02T05:21:17;12.30;;;8.82;;
84284;SDS011;74441;49.470;11.032;2024-03-02T05:23:43;14.13;;;9.23;;
84284;SDS011;74441;49.470;11.032;2024-03-02T05:26:09;14.15;;;9.23;;
84284;SDS011;74441;49.470;11.032;2024-03-02T05:31:02;16.17;;;8.90;;
84284;SDS011;74441;49.470;11.032;2024-03-02T05:33:28;14.88;;;9.68;;
84284;SDS011;74441;49.470;11.032;2024-03-02T05:35:55;15.35;;;9.35;;
84284;SDS011;74441;49.470;11.032;2024-03-02T05:38:20;15.55;;;9.52;;
84284;SDS011;74441;49.470;11.032;2024-03-02T05:40:46;17.08;;;10.57;;
84284;SDS011;74441;49.470;11.032;2024-03-02T05:43:12;16.90;;;10.98;;
84284;SDS011;74441;49.470;11.032;2024-03-02T05:45:37;15.75;;;10.05;;
84284;SDS011;74441;49.470;11.032;2024-03-02T05:48:02;15.83;;;10.00;;
84284;SDS011;74441;49.470;11.032;2024-03-02T05:50:28;15.05;;;10.18;;
84284;SDS011;74441;49.470;11.032;2024-03-02T05:52:53;15.87;;;10.80;;
84284;SDS011;74441;49.470;11.032;2024-03-02T05:55:18;14.63;;;9.02;;
84284;SDS011;74441;49.470;11.032;2024-03-02T05:57:44;13.57;;;9.77;;
84284;SDS011;74441;49.470;11.032;2024-03-02T06:00:09;13.17;;;9.33;;
84284;SDS011;74441;49.470;11.032;2024-03-02T06:02:35;13.25;;;8.98;;
84284;SDS011;74441;49.470;11.032;2024-03-02T06:05:04;14.30;;;9.60;;
84284;SDS011;74441;49.470;11.032;2024-03-02T06:07:29;15.85;;;8.90;;
84284;SDS011;74441;49.470;11.032;2024-03-02T06:09:55;14.40;;;10.20;;
84284;SDS011;74441;49.470;11.032;2024-03-02T06:12:20;14.63;;;10.00;;
84284;SDS011;74441;49.470;11.032;2024-03-02T06:14:45;12.65;;;8.73;;
84284;SDS011;74441;49.470;11.032;2024-03-02T06:17:11;12.43;;;8.50;;
84284;SDS011;74441;49.470;11.032;2024-03-02T06:19:36;15.82;;;9.30;;
84284;SDS011;74441;49.470;11.032;2024-03-02T06:22:01;12.37;;;8.47;;
84284;SDS011;74441;49.470;11.032;2024-03-02T06:24:27;16.70;;;9.37;;
84284;SDS011;74441;49.470;11.032;2024-03-02T06:26:52;12.70;;;8.57;;
84284;SDS011;74441;49.470;11.032;2024-03-02T06:29:17;13.37;;;8.63;;
84284;SDS011;74441;49.470;11.032;2024-03-02T06:31:43;12.17;;;8.80;;
84284;SDS011;74441;49.470;11.032;2024-03-02T06:34:08;13.05;;;9.10;;
84284;SDS011;74441;49.470;11.032;2024-03-02T06:36:33;14.50;;;9.63;;
84284;SDS011;74441;49.470;11.032;2024-03-02T06:38:59;13.73;;;8.82;;
84284;SDS011;74441;49.470;11.032;2024-03-02T06:41:24;14.15;;;9.07;;
84284;SDS011;74441;49.470;11.032;2024-03-02T06:43:51;14.18;;;9.68;;
84284;SDS011;74441;49.470;11.032;2024-03-02T06:46:24;13.35;;;8.88;;
84284;SDS011;74441;49.470;11.032;2024-03-02T06:48:49;13.33;;;9.27;;
84284;SDS011;74441;49.470;11.032;2024-03-02T06:51:14;11.63;;;8.97;;
84284;SDS011;74441;49.470;11.032;2024-03-02T06:53:40;12.23;;;8.70;;
84284;SDS011;74441;49.470;11.032;2024-03-02T06:56:06;13.30;;;9.00;;
84284;SDS011;74441;49.470;11.032;2024-03-02T06:58:32;13.18;;;9.27;;
84284;SDS011;74441;49.470;11.032;2024-03-02T07:00:58;13.87;;;9.43;;
84284;SDS011;74441;49.470;11.032;2024-03-02T07:03:23;15.13;;;10.33;;
84284;SDS011;74441;49.470;11.032;2024-03-02T07:05:48;12.50;;;9.15;;
84284;SDS011;74441;49.470;11.032;2024-03-02T07:08:13;13.97;;;9.27;;
84284;SDS011;74441;49.470;11.032;2024-03-02T07:10:39;14.90;;;9.53;;
84284;SDS011;74441;49.470;11.032;2024-03-02T07:13:04;13.27;;;9.30;;
84284;SDS011;74441;49.470;11.032;2024-03-02T07:15:29;12.73;;;9.05;;
84284;SDS011;74441;49.470;11.032;2024-03-02T07:18:10;12.70;;;9.02;;
84284;SDS011;74441;49.470;11.032;2024-03-02T07:20:35;13.90;;;10.35;;
84284;SDS011;74441;49.470;11.032;2024-03-02T07:23:00;14.53;;;9.73;;
84284;SDS011;74441;49.470;11.032;2024-03-02T07:25:26;14.83;;;8.90;;
84284;SDS011;74441;49.470;11.032;2024-03-02T07:27:51;14.30;;;10.07;;
84284;SDS011;74441;49.470;11.032;2024-03-02T07:30:16;15.00;;;9.65;;
84284;SDS011;74441;49.470;11.032;2024-03-02T07:32:42;15.65;;;10.35;;
84284;SDS011;74441;49.470;11.032;2024-03-02T07:35:10;14.38;;;9.68;;
84284;SDS011;74441;49.470;11.032;2024-03-02T07:37:36;14.25;;;10.10;;
84284;SDS011;74441;49.470;11.032;2024-03-02T07:40:02;14.00;;;9.80;;
84284;SDS011;74441;49.470;11.032;2024-03-02T07:42:27;13.38;;;9.10;;
84284;SDS011;74441;49.470;11.032;2024-03-02T07:44:54;14.85;;;9.02;;
84284;SDS011;74441;49.470;11.032;2024-03-02T07:47:19;15.52;;;10.07;;
84284;SDS011;74441;49.470;11.032;2024-03-02T07:49:44;13.40;;;9.10;;
84284;SDS011;74441;49.470;11.032;2024-03-02T07:52:11;13.15;;;9.35;;
84284;SDS011;74441;49.470;11.032;2024-03-02T07:54:36;14.85;;;9.98;;
84284;SDS011;74441;49.470;11.032;2024-03-02T07:57:01;13.83;;;9.73;;
84284;SDS011;74441;49.470;11.032;2024-03-02T07:59:27;13.82;;;9.63;;
84284;SDS011;74441;49.470;11.032;2024-03-02T08:01:52;12.93;;;8.65;;
84284;SDS011;74441;49.470;11.032;2024-03-02T08:04:20;14.48;;;9.23;;
84284;SDS011;74441;49.470;11.032;2024-03-02T08:06:45;12.75;;;9.38;;
84284;SDS011;74441;49.470;11.032;2024-03-02T08:09:11;14.25;;;9.80;;
84284;SDS011;74441;49.470;11.032;2024-03-02T08:11:36;13.67;;;9.37;;
84284;SDS011;74441;49.470;11.032;2024-03-02T08:14:02;11.73;;;8.40;;
84284;SDS011;74441;49.470;11.032;2024-03-02T08:16:28;13.38;;;9.15;;
84284;SDS011;74441;49.470;11.032;2024-03-02T08:18:54;16.75;;;9.80;;
84284;SDS011;74441;49.470;11.032;2024-03-02T08:21:19;12.50;;;8.90;;
84284;SDS011;74441;49.470;11.032;2024-03-02T08:23:45;13.45;;;8.75;;
84284;SDS011;74441;49.470;11.032;2024-03-02T08:26:10;13.50;;;9.23;;
84284;SDS011;74441;49.470;11.032;2024-03-02T08:28:36;12.90;;;8.25;;
84284;SDS011;74441;49.470;11.032;2024-03-02T08:31:07;12.70;;;9.38;;
84284;SDS011;74441;49.470;11.032;2024-03-02T08:33:33;13.52;;;8.98;;
84284;SDS011;74441;49.470;11.032;2024-03-02T08:35:58;15.02;;;9.93;;
84284;SDS011;74441;49.470;11.032;2024-03-02T08:38:24;13.95;;;8.73;;
84284;SDS011;74441;49.470;11.032;2024-03-02T08:40:49;13.18;;;9.05;;
84284;SDS011;74441;49.470;11.032;2024-03-02T08:43:15;14.70;;;9.40;;
84284;SDS011;74441;49.470;11.032;2024-03-02T08:45:40;15.30;;;9.48;;
84284;SDS011;74441;49.470;11.032;2024-03-02T08:48:07;14.00;;;9.05;;
84284;SDS011;74441;49.470;11.032;2024-03-02T08:50:33;13.57;;;9.00;;
84284;SDS011;74441;49.470;11.032;2024-03-02T08:52:59;11.63;;;8.32;;
84284;SDS011;74441;49.470;11.032;2024-03-02T08:55:24;12.55;;;9.13;;
84284;SDS011;74441;49.470;11.032;2024-03-02T08:57:50;11.57;;;8.52;;
84284;SDS011;74441;49.470;11.032;2024-03-02T09:00:15;10.52;;;8.10;;
84284;SDS011;74441;49.470;11.032;2024-03-02T09:02:42;12.35;;;8.27;;
84284;SDS011;74441;49.470;11.032;2024-03-02T09:05:09;12.80;;;8.73;;
84284;SDS011;74441;49.470;11.032;2024-03-02T09:07:34;13.70;;;9.23;;
84284;SDS011;74441;49.470;11.032;2024-03-02T09:09:59;13.63;;;8.53;;
84284;SDS011;74441;49.470;11.032;2024-03-02T09:12:25;11.98;;;8.27;;
84284;SDS011;74441;49.470;11.032;2024-03-02T09:14:50;12.18;;;8.52;;
84284;SDS011;74441;49.470;11.032;2024-03-02T09:17:15;11.50;;;7.90;;
84284;SDS011;74441;49.470;11.032;2024-03-02T09:19:41;11.15;;;7.72;;
84284;SDS011;74441;49.470;11.032;2024-03-02T09:22:06;9.82;;;7.50;;
84284;SDS011;74441;49.470;11.032;2024-03-02T09:24:32;9.48;;;6.78;;
84284;SDS011;74441;49.470;11.032;2024-03-02T09:27:00;9.95;;;7.45;;
84284;SDS011;74441;49.470;11.032;2024-03-02T09:29:25;11.00;;;8.18;;
84284;SDS011;74441;49.470;11.032;2024-03-02T09:31:51;11.20;;;7.20;;
84284;SDS011;74441;49.470;11.032;2024-03-02T09:34:16;9.97;;;7.03;;
84284;SDS011;74441;49.470;11.032;2024-03-02T09:36:42;9.98;;;6.85;;
84284;SDS011;74441;49.470;11.032;2024-03-02T09:39:08;11.35;;;7.15;;
84284;SDS011;74441;49.470;11.032;2024-03-02T09:41:34;9.27;;;6.57;;
84284;SDS011;74441;49.470;11.032;2024-03-02T09:44:00;9.50;;;6.50;;
84284;SDS011;74441;49.470;11.032;2024-03-02T09:46:25;11.13;;;6.50;;
84284;SDS011;74441;49.470;11.032;2024-03-02T09:48:52;8.93;;;6.20;;
84284;SDS011;74441;49.470;11.032;2024-03-02T09:51:17;7.93;;;6.22;;
84284;SDS011;74441;49.470;11.032;2024-03-02T09:53:44;8.52;;;6.22;;
84284;SDS011;74441;49.470;11.032;2024-03-02T09:56:10;8.25;;;6.13;;
84284;SDS011;74441;49.470;11.032;2024-03-02T09:58:36;7.68;;;5.97;;
84284;SDS011;74441;49.470;11.032;2024-03-02T10:01:01;8.05;;;6.30;;
84284;SDS011;74441;49.470;11.032;2024-03-02T10:03:26;8.13;;;6.50;;
84284;SDS011;74441;49.470;11.032;2024-03-02T10:05:53;9.27;;;6.88;;
84284;SDS011;74441;49.470;11.032;2024-03-02T10:08:18;9.40;;;6.80;;
84284;SDS011;74441;49.470;11.032;2024-03-02T10:10:43;8.63;;;6.43;;
84284;SDS011;74441;49.470;11.032;2024-03-02T10:13:09;9.82;;;6.80;;
84284;SDS011;74441;49.470;11.032;2024-03-02T10:15:36;8.63;;;6.47;;
84284;SDS011;74441;49.470;11.032;2024-03-02T10:18:03;8.23;;;6.10;;
84284;SDS011;74441;49.470;11.032;2024-03-02T10:20:29;7.20;;;5.93;;
84284;SDS011;74441;49.470;11.032;2024-03-02T10:22:55;8.80;;;6.40;;
84284;SDS011;74441;49.470;11.032;2024-03-02T10:25:31;9.35;;;6.43;;
84284;SDS011;74441;49.470;11.032;2024-03-02T10:27:58;9.00;;;6.40;;
84284;SDS011;74441;49.470;11.032;2024-03-02T10:30:25;9.05;;;6.43;;
84284;SDS011;74441;49.470;11.032;2024-03-02T10:32:52;6.97;;;5.40;;
84284;SDS011;74441;49.470;11.032;2024-03-02T10:35:21;6.55;;;3.90;;
84284;SDS011;74441;49.470;11.032;2024-03-02T10:37:48;7.65;;;3.70;;
84284;SDS011;74441;49.470;11.032;2024-03-02T10:40:14;3.05;;;2.22;;
84284;SDS011;74441;49.470;11.032;2024-03-02T10:42:39;3.00;;;2.03;;
84284;SDS011;74441;49.470;11.032;2024-03-02T10:45:07;3.38;;;2.50;;
84284;SDS011;74441;49.470;11.032;2024-03-02T10:47:35;2.95;;;2.13;;
84284;SDS011;74441;49.470;11.032;2024-03-02T10:50:01;2.80;;;1.92;;
84284;SDS011;74441;49.470;11.032;2024-03-02T10:52:33;2.80;;;2.05;;
84284;SDS011;74441;49.470;11.032;2024-03-02T10:55:01;2.50;;;2.00;;
84284;SDS011;74441;49.470;11.032;2024-03-02T10:57:31;2.78;;;2.08;;
84284;SDS011;74441;49.470;11.032;2024-03-02T11:00:00;2.83;;;2.10;;
84284;SDS011;74441;49.470;11.032;2024-03-02T11:02:27;2.60;;;1.73;;
84284;SDS011;74441;49.470;11.032;2024-03-02T11:04:54;3.33;;;2.20;;
84284;SDS011;74441;49.470;11.032;2024-03-02T11:07:20;2.72;;;2.25;;
84284;SDS011;74441;49.470;11.032;2024-03-02T11:09:54;2.72;;;2.05;;
84284;SDS011;74441;49.470;11.032;2024-03-02T11:12:31;2.92;;;2.28;;
84284;SDS011;74441;49.470;11.032;2024-03-02T11:15:02;4.25;;;2.55;;
84284;SDS011;74441;49.470;11.032;2024-03-02T11:17:30;3.10;;;2.20;;
84284;SDS011;74441;49.470;11.032;2024-03-02T11:19:55;3.10;;;2.50;;
84284;SDS011;74441;49.470;11.032;2024-03-02T11:22:22;3.30;;;2.63;;
84284;SDS011;74441;49.470;11.032;2024-03-02T11:24:51;3.03;;;2.30;;
84284;SDS011;74441;49.470;11.032;2024-03-02T11:35:31;2.90;;;2.30;;
84284;SDS011;74441;49.470;11.032;2024-03-02T11:37:57;3.30;;;2.70;;
84284;SDS011;74441;49.470;11.032;2024-03-02T11:40:25;3.35;;;2.40;;
84284;SDS011;74441;49.470;11.032;2024-03-02T11:42:50;3.90;;;3.00;;
84284;SDS011;74441;49.470;11.032;2024-03-02T11:45:17;5.00;;;3.40;;
84284;SDS011;74441;49.470;11.032;2024-03-02T11:47:51;5.10;;;3.65;;
84284;SDS011;74441;49.470;11.032;2024-03-02T11:50:30;3.45;;;2.50;;
84284;SDS011;74441;49.470;11.032;2024-03-02T11:52:58;4.38;;;3.17;;
84284;SDS011;74441;49.470;11.032;2024-03-02T11:55:25;3.38;;;2.45;;
84284;SDS011;74441;49.470;11.032;2024-03-02T11:57:51;3.20;;;2.47;;
84284;SDS011;74441;49.470;11.032;2024-03-02T12:00:17;3.50;;;2.63;;
84284;SDS011;74441;49.470;11.032;2024-03-02T12:02:43;3.95;;;2.85;;
84284;SDS011;74441;49.470;11.032;2024-03-02T12:05:12;3.72;;;2.83;;
84284;SDS011;74441;49.470;11.032;2024-03-02T12:07:38;3.20;;;2.38;;
84284;SDS011;74441;49.470;11.032;2024-03-02T12:10:03;2.90;;;2.45;;
84284;SDS011;74441;49.470;11.032;2024-03-02T12:12:30;3.55;;;2.50;;
84284;SDS011;74441;49.470;11.032;2024-03-02T12:14:56;3.70;;;2.60;;
84284;SDS011;74441;49.470;11.032;2024-03-02T12:17:21;4.07;;;2.65;;
84284;SDS011;74441;49.470;11.032;2024-03-02T12:19:48;3.40;;;2.40;;
84284;SDS011;74441;49.470;11.032;2024-03-02T12:22:13;3.92;;;2.75;;
84284;SDS011;74441;49.470;11.032;2024-03-02T12:24:40;4.55;;;3.15;;
84284;SDS011;74441;49.470;11.032;2024-03-02T12:27:06;3.63;;;2.70;;
84284;SDS011;74441;49.470;11.032;2024-03-02T12:29:31;4.07;;;2.67;;
84284;SDS011;74441;49.470;11.032;2024-03-02T12:31:57;4.18;;;3.00;;
84284;SDS011;74441;49.470;11.032;2024-03-02T12:34:22;3.77;;;2.57;;
84284;SDS011;74441;49.470;11.032;2024-03-02T12:36:48;4.53;;;2.90;;
84284;SDS011;74441;49.470;11.032;2024-03-02T12:39:20;4.88;;;3.10;;
84284;SDS011;74441;49.470;11.032;2024-03-02T12:41:47;3.88;;;2.80;;
84284;SDS011;74441;49.470;11.032;2024-03-02T12:44:12;4.43;;;2.92;;
84284;SDS011;74441;49.470;11.032;2024-03-02T12:46:37;4.47;;;2.73;;
84284;SDS011;74441;49.470;11.032;2024-03-02T12:49:10;4.05;;;2.58;;
84284;SDS011;74441;49.470;11.032;2024-03-02T12:51:36;4.85;;;3.30;;
84284;SDS011;74441;49.470;11.032;2024-03-02T12:54:02;4.43;;;3.22;;
84284;SDS011;74441;49.470;11.032;2024-03-02T12:56:28;4.20;;;3.30;;
84284;SDS011;74441;49.470;11.032;2024-03-02T12:58:54;4.32;;;3.20;;
84284;SDS011;74441;49.470;11.032;2024-03-02T13:01:19;4.65;;;3.55;;
84284;SDS011;74441;49.470;11.032;2024-03-02T13:03:45;3.87;;;3.20;;
84284;SDS011;74441;49.470;11.032;2024-03-02T13:06:10;4.55;;;3.03;;
84284;SDS011;74441;49.470;11.032;2024-03-02T13:08:36;4.88;;;3.42;;
84284;SDS011;74441;49.470;11.032;2024-03-02T13:11:01;4.78;;;3.35;;
84284;SDS011;74441;49.470;11.032;2024-03-02T13:13:26;4.30;;;3.00;;
84284;SDS011;74441;49.470;11.032;2024-03-02T13:15:56;4.35;;;2.88;;
84284;SDS011;74441;49.470;11.032;2024-03-02T13:18:21;4.75;;;3.08;;
84284;SDS011;74441;49.470;11.032;2024-03-02T13:20:47;4.95;;;3.42;;
84284;SDS011;74441;49.470;11.032;2024-03-02T13:23:12;3.72;;;2.92;;
84284;SDS011;74441;49.470;11.032;2024-03-02T13:25:37;4.53;;;2.63;;
84284;SDS011;74441;49.470;11.032;2024-03-02T13:28:03;3.60;;;3.15;;
84284;SDS011;74441;49.470;11.032;2024-03-02T13:30:28;3.70;;;2.63;;
84284;SDS011;74441;49.470;11.032;2024-03-02T13:32:54;4.00;;;2.78;;
84284;SDS011;74441;49.470;11.032;2024-03-02T13:35:19;3.85;;;2.60;;
84284;SDS011;74441;49.470;11.032;2024-03-02T13:37:45;3.93;;;2.90;;
84284;SDS011;74441;49.470;11.032;2024-03-02T13:40:10;4.37;;;2.77;;
84284;SDS011;74441;49.470;11.032;2024-03-02T13:42:39;3.67;;;2.42;;
84284;SDS011;74441;49.470;11.032;2024-03-02T13:45:05;3.78;;;2.75;;
84284;SDS011;74441;49.470;11.032;2024-03-02T13:47:31;3.75;;;2.80;;
84284;SDS011;74441;49.470;11.032;2024-03-02T13:49:56;3.95;;;2.60;;
84284;SDS011;74441;49.470;11.032;2024-03-02T13:52:22;3.47;;;2.60;;
84284;SDS011;74441;49.470;11.032;2024-03-02T13:54:47;3.67;;;2.77;;
84284;SDS011;74441;49.470;11.032;2024-03-02T13:57:13;4.20;;;2.97;;
84284;SDS011;74441;49.470;11.032;2024-03-02T13:59:39;3.83;;;2.85;;
84284;SDS011;74441;49.470;11.032;2024-03-02T14:02:05;3.88;;;2.47;;
84284;SDS011;74441;49.470;11.032;2024-03-02T14:04:31;3.42;;;2.65;;
84284;SDS011;74441;49.470;11.032;2024-03-02T14:06:58;3.45;;;2.53;;
84284;SDS011;74441;49.470;11.032;2024-03-02T14:09:24;4.00;;;2.65;;
84284;SDS011;74441;49.470;11.032;2024-03-02T14:11:49;3.88;;;2.75;;
84284;SDS011;74441;49.470;11.032;2024-03-02T14:14:16;3.25;;;2.50;;
84284;SDS011;74441;49.470;11.032;2024-03-02T14:16:41;3.83;;;2.60;;
84284;SDS011;74441;49.470;11.032;2024-03-02T14:19:07;3.40;;;2.42;;
84284;SDS011;74441;49.470;11.032;2024-03-02T14:21:32;3.92;;;2.60;;
84284;SDS011;74441;49.470;11.032;2024-03-02T14:23:57;3.50;;;2.40;;
84284;SDS011;74441;49.470;11.032;2024-03-02T14:26:22;3.20;;;2.30;;